Time;durP1;ratioP1;P1;durP2;ratioP2;P2;SDS_P1;SDS_P2;PMS_P1;PMS_P2;Temp;Humidity;BMP_temperature;BMP_pressure;BME280_temperature;BME280_humidity;BME280_pressure;Samples;Min_cycle;Max_cycle;Signal;HPM_P1;HPM_P2
2022/10/17 00:01:48;;;;;;;6.83;6.23;;;;;;;;;;5031059;28;20797;-42
2022/10/17 00:04:14;;;;;;;6.60;6.00;;;;;;;;;;5031312;28;20423;-42
2022/10/17 00:06:40;;;;;;;6.93;6.23;;;;;;;;;;5031520;28;20385;-42
2022/10/17 00:09:06;;;;;;;10.70;6.20;;;;;;;;;;5031234;28;20459;-41
2022/10/17 00:11:32;;;;;;;8.60;6.07;;;;;;;;;;5030780;28;20410;-41
2022/10/17 00:13:58;;;;;;;9.80;6.13;;;;;;;;;;5031517;28;20382;-41
2022/10/17 00:16:29;;;;;;;9.27;8.33;;;;;;;;;;5031295;28;20448;-42
2022/10/17 00:18:55;;;;;;;8.80;6.00;;;;;;;;;;5031263;28;20477;-41
2022/10/17 00:21:21;;;;;;;8.03;5.57;;;;;;;;;;5030677;28;20457;-42
2022/10/17 00:23:47;;;;;;;6.83;6.00;;;;;;;;;;5031233;28;20390;-42
2022/10/17 00:26:14;;;;;;;8.40;5.80;;;;;;;;;;5031195;28;20897;-41
2022/10/17 00:28:40;;;;;;;6.77;5.50;;;;;;;;;;5031127;28;20398;-42
2022/10/17 00:31:06;;;;;;;6.10;5.50;;;;;;;;;;5030628;28;20405;-42
2022/10/17 00:33:34;;;;;;;9.30;5.43;;;;;;;;;;5031219;28;20379;-42
2022/10/17 00:36:08;;;;;;;7.37;6.17;;;;;;;;;;5032263;28;20467;-42
2022/10/17 00:38:34;;;;;;;7.70;5.87;;;;;;;;;;5034616;28;20427;-42
2022/10/17 00:41:00;;;;;;;6.70;5.53;;;;;;;;;;5034168;28;20438;-42
2022/10/17 00:43:26;;;;;;;6.23;5.70;;;;;;;;;;5034549;28;20386;-41
2022/10/17 00:45:52;;;;;;;8.07;5.70;;;;;;;;;;5034901;28;20429;-41
2022/10/17 00:48:19;;;;;;;9.50;6.77;;;;;;;;;;5034861;28;20900;-42
2022/10/17 00:50:47;;;;;;;9.83;6.07;;;;;;;;;;5033720;28;20773;-42
2022/10/17 00:53:13;;;;;;;7.90;6.13;;;;;;;;;;5034609;28;20413;-41
2022/10/17 00:55:47;;;;;;;8.70;4.70;;;;;;;;;;5034530;28;20412;-42
2022/10/17 00:58:14;;;;;;;6.33;5.57;;;;;;;;;;5034199;28;20474;-42
2022/10/17 01:00:40;;;;;;;6.73;4.80;;;;;;;;;;5031916;28;20485;-42
2022/10/17 01:03:06;;;;;;;8.57;5.80;;;;;;;;;;5033475;28;20450;-42
2022/10/17 01:05:32;;;;;;;6.30;5.70;;;;;;;;;;5033545;28;20773;-42
2022/10/17 01:07:58;;;;;;;11.37;5.60;;;;;;;;;;5033892;28;20386;-42
2022/10/17 01:10:29;;;;;;;6.03;5.20;;;;;;;;;;5033547;28;20416;-42
2022/10/17 01:13:14;;;;;;;6.40;5.40;;;;;;;;;;5034006;28;20473;-42
2022/10/17 01:15:49;;;;;;;6.33;4.93;;;;;;;;;;5033840;28;20402;-42
2022/10/17 01:18:27;;;;;;;8.77;5.37;;;;;;;;;;5033864;28;20398;-42
2022/10/17 01:21:08;;;;;;;6.67;6.03;;;;;;;;;;5033274;28;20513;-42
2022/10/17 01:23:34;;;;;;;9.83;4.70;;;;;;;;;;5033821;28;20405;-42
2022/10/17 01:26:12;;;;;;;5.40;4.90;;;;;;;;;;5033654;28;20439;-44
2022/10/17 01:29:07;;;;;;;8.07;5.20;;;;;;;;;;5033612;28;20498;-42
2022/10/17 01:31:38;;;;;;;5.50;5.00;;;;;;;;;;5033145;28;20379;-44
2022/10/17 01:34:11;;;;;;;6.07;5.50;;;;;;;;;;5033629;28;20413;-42
2022/10/17 01:36:56;;;;;;;7.20;5.00;;;;;;;;;;5033248;28;20405;-43
2022/10/17 01:39:27;;;;;;;7.40;5.10;;;;;;;;;;5033432;28;20416;-41
2022/10/17 01:42:01;;;;;;;5.83;5.13;;;;;;;;;;5033134;28;20493;-44
2022/10/17 01:44:32;;;;;;;8.40;5.23;;;;;;;;;;5033422;28;20368;-42
2022/10/17 01:47:01;;;;;;;6.83;5.40;;;;;;;;;;5033050;28;20393;-44
2022/10/17 01:49:28;;;;;;;8.13;5.40;;;;;;;;;;5033213;28;20408;-42
2022/10/17 01:52:03;;;;;;;8.47;4.70;;;;;;;;;;5032877;28;20371;-42
2022/10/17 01:54:38;;;;;;;6.17;5.30;;;;;;;;;;5033220;28;20396;-42
2022/10/17 01:57:05;;;;;;;10.70;4.90;;;;;;;;;;5033237;28;20454;-41
2022/10/17 01:59:37;;;;;;;5.40;4.90;;;;;;;;;;5032725;28;20500;-42
2022/10/17 02:02:04;;;;;;;5.00;4.50;;;;;;;;;;5032706;28;20398;-44
2022/10/17 02:04:30;;;;;;;5.33;4.80;;;;;;;;;;5032993;28;20396;-42
2022/10/17 02:06:56;;;;;;;7.27;5.37;;;;;;;;;;5033021;28;20400;-42
2022/10/17 02:09:26;;;;;;;5.97;5.30;;;;;;;;;;5033020;28;20913;-42
2022/10/17 02:12:14;;;;;;;8.33;5.23;;;;;;;;;;5032549;28;20412;-43
2022/10/17 02:14:48;;;;;;;6.70;4.87;;;;;;;;;;5032879;28;20383;-42
2022/10/17 02:17:32;;;;;;;6.63;4.80;;;;;;;;;;5032907;28;20416;-42
2022/10/17 02:20:06;;;;;;;5.30;4.80;;;;;;;;;;5032090;28;20941;-42
2022/10/17 02:22:47;;;;;;;5.20;4.53;;;;;;;;;;5032836;28;20390;-43
2022/10/17 02:25:13;;;;;;;7.20;5.03;;;;;;;;;;5032712;28;20871;-42
2022/10/17 02:27:39;;;;;;;7.10;6.00;;;;;;;;;;5032586;28;20420;-42
2022/10/17 02:30:10;;;;;;;9.63;5.23;;;;;;;;;;5031880;28;20490;-44
2022/10/17 02:32:40;;;;;;;5.60;4.93;;;;;;;;;;5032520;28;20408;-43
2022/10/17 02:35:08;;;;;;;6.50;4.10;;;;;;;;;;5032925;28;20379;-42
2022/10/17 02:37:35;;;;;;;7.27;5.23;;;;;;;;;;5032713;28;20877;-42
2022/10/17 02:40:01;;;;;;;5.40;4.90;;;;;;;;;;5031754;28;20525;-41
2022/10/17 02:42:28;;;;;;;6.57;4.93;;;;;;;;;;5032307;28;20380;-42
2022/10/17 02:44:54;;;;;;;6.00;4.60;;;;;;;;;;5032384;28;20371;-41
2022/10/17 02:47:28;;;;;;;8.93;4.97;;;;;;;;;;5032232;28;20495;-43
2022/10/17 02:49:57;;;;;;;6.27;4.93;;;;;;;;;;5031593;28;20426;-42
2022/10/17 02:52:34;;;;;;;5.97;5.07;;;;;;;;;;5032515;28;20482;-42
2022/10/17 02:55:05;;;;;;;4.93;4.57;;;;;;;;;;5032192;28;20930;-42
2022/10/17 02:57:40;;;;;;;7.73;5.20;;;;;;;;;;5031831;28;20404;-41
2022/10/17 03:00:08;;;;;;;5.23;4.83;;;;;;;;;;5030872;28;20487;-42
2022/10/17 03:02:41;;;;;;;5.37;4.90;;;;;;;;;;5032218;28;20405;-42
2022/10/17 03:05:07;;;;;;;7.10;4.40;;;;;;;;;;5032077;28;20469;-42
2022/10/17 03:07:33;;;;;;;5.77;5.27;;;;;;;;;;5032066;28;20375;-41
2022/10/17 03:09:59;;;;;;;7.70;5.70;;;;;;;;;;5031355;28;20798;-42
2022/10/17 03:12:25;;;;;;;9.80;4.80;;;;;;;;;;5031852;28;20769;-42
2022/10/17 03:14:51;;;;;;;5.27;4.87;;;;;;;;;;5031865;28;20711;-41
2022/10/17 03:17:17;;;;;;;5.90;4.70;;;;;;;;;;5032150;28;20380;-41
2022/10/17 03:19:43;;;;;;;5.00;4.57;;;;;;;;;;5031500;28;20407;-42
2022/10/17 03:22:09;;;;;;;6.63;4.83;;;;;;;;;;5031411;28;20426;-42
2022/10/17 03:24:35;;;;;;;13.67;5.27;;;;;;;;;;5031765;28;20403;-45
2022/10/17 03:27:01;;;;;;;5.33;4.73;;;;;;;;;;5031680;28;20567;-41
2022/10/17 03:29:27;;;;;;;5.10;4.70;;;;;;;;;;5031501;28;20416;-42
2022/10/17 03:31:52;;;;;;;5.50;5.00;;;;;;;;;;5031338;28;20393;-41
2022/10/17 03:34:18;;;;;;;5.20;4.70;;;;;;;;;;5031782;28;20443;-42
2022/10/17 03:36:45;;;;;;;4.50;4.10;;;;;;;;;;5031677;28;20380;-42
2022/10/17 03:39:11;;;;;;;5.70;4.57;;;;;;;;;;5032075;28;20483;-42
2022/10/17 03:41:37;;;;;;;8.63;5.10;;;;;;;;;;5030896;28;20489;-42
2022/10/17 03:44:03;;;;;;;9.70;4.60;;;;;;;;;;5031613;28;20437;-42
2022/10/17 03:46:29;;;;;;;8.53;6.33;;;;;;;;;;5031795;28;20372;-42
2022/10/17 03:48:55;;;;;;;6.23;4.77;;;;;;;;;;5031436;28;20457;-42
2022/10/17 03:51:21;;;;;;;7.40;5.30;;;;;;;;;;5030940;28;20383;-45
2022/10/17 03:53:47;;;;;;;9.47;4.70;;;;;;;;;;5031590;28;20377;-43
2022/10/17 03:56:17;;;;;;;7.80;4.47;;;;;;;;;;5031354;28;20404;-43
2022/10/17 03:58:44;;;;;;;4.73;4.17;;;;;;;;;;5031566;28;21005;-42
2022/10/17 04:01:11;;;;;;;7.93;4.40;;;;;;;;;;5030819;28;20495;-42
2022/10/17 04:03:37;;;;;;;5.80;4.30;;;;;;;;;;5031733;28;20402;-42
2022/10/17 04:06:04;;;;;;;5.10;4.33;;;;;;;;;;5031429;28;20416;-41
2022/10/17 04:08:30;;;;;;;5.07;4.67;;;;;;;;;;5031344;28;20516;-42
2022/10/17 04:11:00;;;;;;;5.80;4.37;;;;;;;;;;5033472;28;20412;-44
2022/10/17 04:13:26;;;;;;;5.33;4.80;;;;;;;;;;5035356;28;20390;-42
2022/10/17 04:16:12;;;;;;;7.20;4.80;;;;;;;;;;5035029;28;20932;-42
2022/10/17 04:18:37;;;;;;;7.40;5.40;;;;;;;;;;5034981;28;20395;-42
2022/10/17 04:21:04;;;;;;;5.37;4.87;;;;;;;;;;5034782;28;20468;-41
2022/10/17 04:23:30;;;;;;;5.53;4.50;;;;;;;;;;5035050;28;20377;-42
2022/10/17 04:25:57;;;;;;;5.20;4.20;;;;;;;;;;5034836;28;20378;-42
2022/10/17 04:28:23;;;;;;;7.30;5.10;;;;;;;;;;5034855;28;20709;-41
2022/10/17 04:31:03;;;;;;;5.20;4.70;;;;;;;;;;5034240;28;20391;-41
2022/10/17 04:33:29;;;;;;;7.17;5.00;;;;;;;;;;5035272;28;20845;-42
2022/10/17 04:36:05;;;;;;;4.43;4.03;;;;;;;;;;5034736;28;20392;-42
2022/10/17 04:38:32;;;;;;;6.70;4.90;;;;;;;;;;5034685;28;20426;-42
2022/10/17 04:41:01;;;;;;;8.17;5.00;;;;;;;;;;5034037;28;20549;-42
2022/10/17 04:43:28;;;;;;;4.63;4.23;;;;;;;;;;5034648;28;20797;-42
2022/10/17 04:45:53;;;;;;;7.50;4.50;;;;;;;;;;5034622;28;20644;-41
2022/10/17 04:48:20;;;;;;;4.93;4.43;;;;;;;;;;5034302;28;20436;-42
2022/10/17 04:50:55;;;;;;;4.97;4.20;;;;;;;;;;5033879;28;20455;-41
2022/10/17 04:53:22;;;;;;;7.83;4.63;;;;;;;;;;5034438;28;20380;-41
2022/10/17 04:55:48;;;;;;;6.17;5.73;;;;;;;;;;5034311;28;20497;-43
2022/10/17 04:58:14;;;;;;;5.30;4.10;;;;;;;;;;5034232;28;20415;-43
2022/10/17 05:00:40;;;;;;;5.33;4.83;;;;;;;;;;5033485;28;20457;-44
2022/10/17 05:03:06;;;;;;;4.90;4.50;;;;;;;;;;5034204;28;20431;-42
2022/10/17 05:05:32;;;;;;;5.87;4.80;;;;;;;;;;5034202;28;20376;-42
2022/10/17 05:07:58;;;;;;;4.83;4.43;;;;;;;;;;5033953;28;20396;-41
2022/10/17 05:10:24;;;;;;;6.07;4.40;;;;;;;;;;5033561;28;20451;-42
2022/10/17 05:12:50;;;;;;;4.87;4.47;;;;;;;;;;5034114;28;20389;-42
2022/10/17 05:15:16;;;;;;;8.47;4.33;;;;;;;;;;5033890;28;20387;-42
2022/10/17 05:17:42;;;;;;;4.77;4.37;;;;;;;;;;5033939;28;20419;-42
2022/10/17 05:20:08;;;;;;;5.47;4.27;;;;;;;;;;5033135;28;20438;-42
2022/10/17 05:22:34;;;;;;;5.60;5.00;;;;;;;;;;5033302;28;20407;-41
2022/10/17 05:25:00;;;;;;;10.03;4.60;;;;;;;;;;5033771;28;20452;-42
2022/10/17 05:27:26;;;;;;;5.83;4.73;;;;;;;;;;5033905;28;20395;-42
2022/10/17 05:29:52;;;;;;;9.03;4.90;;;;;;;;;;5033301;28;20464;-42
2022/10/17 05:32:18;;;;;;;8.33;4.73;;;;;;;;;;5033206;28;20420;-43
2022/10/17 05:34:44;;;;;;;6.03;4.73;;;;;;;;;;5033664;28;20471;-44
2022/10/17 05:37:10;;;;;;;5.27;4.30;;;;;;;;;;5033727;28;20464;-42
2022/10/17 05:39:36;;;;;;;10.07;5.00;;;;;;;;;;5033123;28;20395;-42
2022/10/17 05:42:02;;;;;;;7.87;5.20;;;;;;;;;;5033136;28;20470;-42
2022/10/17 05:44:28;;;;;;;6.10;4.30;;;;;;;;;;5033342;28;20399;-42
2022/10/17 05:46:54;;;;;;;9.60;4.60;;;;;;;;;;5033486;28;20371;-42
2022/10/17 05:49:20;;;;;;;6.43;5.93;;;;;;;;;;5033247;28;20435;-42
2022/10/17 05:51:46;;;;;;;7.20;4.17;;;;;;;;;;5032814;28;20395;-42
2022/10/17 05:54:12;;;;;;;4.57;4.23;;;;;;;;;;5033285;28;20383;-42
2022/10/17 05:56:38;;;;;;;5.17;4.63;;;;;;;;;;5033251;28;20952;-43
2022/10/17 05:59:04;;;;;;;8.07;4.20;;;;;;;;;;5033092;28;20904;-42
2022/10/17 06:01:30;;;;;;;8.73;5.10;;;;;;;;;;5032538;28;20945;-42
2022/10/17 06:03:56;;;;;;;6.30;4.30;;;;;;;;;;5033088;28;20426;-41
2022/10/17 06:06:22;;;;;;;5.40;5.00;;;;;;;;;;5033086;28;20410;-42
2022/10/17 06:08:48;;;;;;;8.63;4.53;;;;;;;;;;5032903;28;20404;-42
2022/10/17 06:11:14;;;;;;;5.73;4.53;;;;;;;;;;5032364;28;20380;-42
2022/10/17 06:13:40;;;;;;;6.37;4.33;;;;;;;;;;5032936;28;20842;-42
2022/10/17 06:16:06;;;;;;;11.63;5.07;;;;;;;;;;5032872;28;20475;-42
2022/10/17 06:18:32;;;;;;;5.93;4.73;;;;;;;;;;5033122;28;20397;-42
2022/10/17 06:21:02;;;;;;;5.90;5.30;;;;;;;;;;5032053;28;20497;-42
2022/10/17 06:23:28;;;;;;;5.63;4.80;;;;;;;;;;5034053;28;20416;-43
2022/10/17 06:25:57;;;;;;;5.17;4.67;;;;;;;;;;5041363;28;20451;-42
2022/10/17 06:28:23;;;;;;;5.30;4.53;;;;;;;;;;5032451;28;20433;-42
2022/10/17 06:30:49;;;;;;;4.67;4.37;;;;;;;;;;5031227;28;20378;-42
2022/10/17 06:33:15;;;;;;;4.73;4.33;;;;;;;;;;5030883;28;20419;-43
2022/10/17 06:35:41;;;;;;;4.73;4.33;;;;;;;;;;5031127;28;20377;-42
2022/10/17 06:38:07;;;;;;;5.37;4.83;;;;;;;;;;5031360;28;20753;-42
2022/10/17 06:40:33;;;;;;;6.63;4.70;;;;;;;;;;5030097;28;20541;-44
2022/10/17 06:42:59;;;;;;;5.07;4.00;;;;;;;;;;5032298;28;20775;-43
2022/10/17 06:45:25;;;;;;;4.93;4.47;;;;;;;;;;5032398;28;20377;-42
2022/10/17 06:47:51;;;;;;;4.63;4.10;;;;;;;;;;5032155;28;20408;-42
2022/10/17 06:50:17;;;;;;;5.07;4.13;;;;;;;;;;5031798;28;20412;-42
2022/10/17 06:52:43;;;;;;;5.70;4.73;;;;;;;;;;5032299;28;20901;-42
2022/10/17 06:55:09;;;;;;;4.33;3.93;;;;;;;;;;5032130;28;20869;-42
2022/10/17 06:57:35;;;;;;;4.90;4.50;;;;;;;;;;5032176;28;20493;-42
2022/10/17 07:00:01;;;;;;;5.37;4.87;;;;;;;;;;5044025;28;20556;-42
2022/10/17 07:02:27;;;;;;;5.30;4.83;;;;;;;;;;5051881;28;20408;-42
2022/10/17 07:04:53;;;;;;;7.73;5.30;;;;;;;;;;5051380;28;20406;-43
2022/10/17 07:07:19;;;;;;;4.50;4.10;;;;;;;;;;5051931;28;20404;-45
2022/10/17 07:09:45;;;;;;;6.30;4.23;;;;;;;;;;5051629;28;20971;-42
2022/10/17 07:12:11;;;;;;;4.47;4.03;;;;;;;;;;5051496;28;20822;-41
2022/10/17 07:14:37;;;;;;;4.23;3.90;;;;;;;;;;5051959;28;20837;-42
2022/10/17 07:17:03;;;;;;;4.90;4.40;;;;;;;;;;5050872;28;20435;-42
2022/10/17 07:19:29;;;;;;;5.70;4.47;;;;;;;;;;5051476;28;20437;-48
2022/10/17 07:21:55;;;;;;;6.73;4.13;;;;;;;;;;5051220;28;20510;-42
2022/10/17 07:24:21;;;;;;;5.17;4.77;;;;;;;;;;5051822;28;20469;-42
2022/10/17 07:26:47;;;;;;;7.37;4.20;;;;;;;;;;5051796;28;20408;-42
2022/10/17 07:29:13;;;;;;;7.10;4.57;;;;;;;;;;5051533;28;20426;-42
2022/10/17 07:31:39;;;;;;;5.80;4.90;;;;;;;;;;5051180;28;20431;-42
2022/10/17 07:34:05;;;;;;;4.33;3.93;;;;;;;;;;5051670;28;20467;-42
2022/10/17 07:36:31;;;;;;;4.73;4.00;;;;;;;;;;5051537;28;20868;-43
2022/10/17 07:38:57;;;;;;;5.83;4.00;;;;;;;;;;5051656;28;20814;-44
2022/10/17 07:41:23;;;;;;;6.47;4.03;;;;;;;;;;5051049;28;20891;-42
2022/10/17 07:43:49;;;;;;;3.60;3.40;;;;;;;;;;5051694;28;20735;-42
2022/10/17 07:46:15;;;;;;;5.30;4.30;;;;;;;;;;5055093;28;20381;-42
2022/10/17 07:48:41;;;;;;;4.33;4.00;;;;;;;;;;5055544;28;20395;-42
2022/10/17 07:51:09;;;;;;;5.07;3.77;;;;;;;;;;5054820;28;20402;-42
2022/10/17 07:53:38;;;;;;;4.80;4.23;;;;;;;;;;5055630;28;20427;-42
2022/10/17 07:56:08;;;;;;;9.83;4.13;;;;;;;;;;5055531;28;20402;-42
2022/10/17 07:58:34;;;;;;;7.00;4.20;;;;;;;;;;5055087;28;20601;-42
2022/10/17 08:01:01;;;;;;;7.23;4.23;;;;;;;;;;5054746;28;20471;-42
2022/10/17 08:03:27;;;;;;;4.40;4.00;;;;;;;;;;5055124;28;20404;-42
2022/10/17 08:05:56;;;;;;;8.40;4.07;;;;;;;;;;5055179;28;20401;-43
2022/10/17 08:08:22;;;;;;;5.00;3.90;;;;;;;;;;5055542;28;20771;-42
2022/10/17 08:10:48;;;;;;;5.07;3.80;;;;;;;;;;5054767;28;20398;-42
2022/10/17 08:13:14;;;;;;;4.77;3.63;;;;;;;;;;5055148;28;20975;-42
2022/10/17 08:15:40;;;;;;;4.10;3.70;;;;;;;;;;5053716;28;20724;-44
2022/10/17 08:18:06;;;;;;;4.53;4.10;;;;;;;;;;5054830;28;20412;-44
2022/10/17 08:20:32;;;;;;;7.23;3.90;;;;;;;;;;5054494;28;20801;-42
2022/10/17 08:22:58;;;;;;;4.43;3.70;;;;;;;;;;5055030;28;20377;-42
2022/10/17 08:25:24;;;;;;;3.47;3.27;;;;;;;;;;5054975;28;20378;-42
2022/10/17 08:27:50;;;;;;;7.03;4.07;;;;;;;;;;5054826;28;20457;-42
2022/10/17 08:30:16;;;;;;;6.97;4.17;;;;;;;;;;5054139;28;20425;-42
2022/10/17 08:32:42;;;;;;;5.57;3.97;;;;;;;;;;5054787;28;20403;-42
2022/10/17 08:35:08;;;;;;;5.30;3.67;;;;;;;;;;5054667;28;20960;-42
2022/10/17 08:37:34;;;;;;;3.70;3.40;;;;;;;;;;5054748;28;20426;-42
2022/10/17 08:40:00;;;;;;;5.03;3.63;;;;;;;;;;5053962;28;20947;-42
2022/10/17 08:42:26;;;;;;;5.07;3.87;;;;;;;;;;5055080;28;20798;-42
2022/10/17 08:44:52;;;;;;;3.90;3.60;;;;;;;;;;5051629;28;20419;-42
2022/10/17 08:47:41;;;;;;;4.30;3.33;;;;;;;;;;5054244;28;20395;-44
2022/10/17 08:50:12;;;;;;;5.20;3.83;;;;;;;;;;5050743;28;20510;-42
2022/10/17 08:52:44;;;;;;;6.70;3.10;;;;;;;;;;5054199;28;20407;-42
2022/10/17 08:55:14;;;;;;;7.20;3.80;;;;;;;;;;5054061;28;20770;-42
2022/10/17 08:57:40;;;;;;;4.00;3.70;;;;;;;;;;5049040;28;20417;-42
2022/10/17 09:00:12;;;;;;;7.30;3.33;;;;;;;;;;5044319;28;20876;-42
2022/10/17 09:02:48;;;;;;;4.60;4.07;;;;;;;;;;5054093;28;20401;-42
2022/10/17 09:05:13;;;;;;;5.67;3.20;;;;;;;;;;5053921;28;20794;-42
2022/10/17 09:07:45;;;;;;;6.33;3.50;;;;;;;;;;5053976;28;20451;-42
2022/10/17 09:10:17;;;;;;;4.03;3.60;;;;;;;;;;5053461;28;20451;-42
2022/10/17 09:13:01;;;;;;;4.30;3.40;;;;;;;;;;5053677;28;20463;-41
2022/10/17 09:15:27;;;;;;;5.17;3.17;;;;;;;;;;5053766;28;20908;-42
2022/10/17 09:17:57;;;;;;;5.10;2.87;;;;;;;;;;5052143;28;20409;-42
2022/10/17 09:20:29;;;;;;;5.20;3.33;;;;;;;;;;5053040;28;20457;-42
2022/10/17 09:23:00;;;;;;;5.87;3.73;;;;;;;;;;5053524;28;20401;-44
2022/10/17 09:25:27;;;;;;;3.33;3.03;;;;;;;;;;5053766;28;20393;-42
2022/10/17 09:27:56;;;;;;;8.17;3.27;;;;;;;;;;5053457;28;20756;-42
2022/10/17 09:30:37;;;;;;;8.20;3.30;;;;;;;;;;5052881;28;21092;-42
2022/10/17 09:33:11;;;;;;;3.30;3.00;;;;;;;;;;5053246;28;20838;-42
2022/10/17 09:35:38;;;;;;;5.40;3.33;;;;;;;;;;5053930;28;20412;-42
2022/10/17 09:38:04;;;;;;;10.40;4.60;;;;;;;;;;5053768;28;20463;-42
2022/10/17 09:40:34;;;;;;;6.70;3.63;;;;;;;;;;5052770;28;20457;-42
2022/10/17 09:43:02;;;;;;;7.13;3.80;;;;;;;;;;5053398;28;20429;-42
2022/10/17 09:45:30;;;;;;;8.00;3.77;;;;;;;;;;5053388;28;20401;-42
2022/10/17 09:48:09;;;;;;;5.80;3.60;;;;;;;;;;5053170;28;20398;-42
2022/10/17 09:50:36;;;;;;;5.20;3.83;;;;;;;;;;5052719;28;20394;-42
2022/10/17 09:53:22;;;;;;;3.90;3.60;;;;;;;;;;5053176;28;20496;-45
2022/10/17 09:55:50;;;;;;;8.63;3.60;;;;;;;;;;5053192;28;20762;-44
2022/10/17 09:58:16;;;;;;;7.73;3.50;;;;;;;;;;5053017;28;20788;-42
2022/10/17 10:00:47;;;;;;;3.50;3.20;;;;;;;;;;5052485;28;20448;-43
2022/10/17 10:03:20;;;;;;;6.57;3.80;;;;;;;;;;5052905;28;20429;-42
2022/10/17 10:06:13;;;;;;;4.53;4.17;;;;;;;;;;5052818;28;20401;-44
2022/10/17 10:08:52;;;;;;;3.63;3.33;;;;;;;;;;5051512;28;20884;-42
2022/10/17 10:11:22;;;;;;;7.03;3.50;;;;;;;;;;5052371;28;20767;-42
2022/10/17 10:13:48;;;;;;;4.77;3.70;;;;;;;;;;5051857;28;20532;-42
2022/10/17 10:16:19;;;;;;;5.07;3.37;;;;;;;;;;5052776;28;20405;-42
2022/10/17 10:18:46;;;;;;;5.40;3.50;;;;;;;;;;5052599;28;20431;-42
2022/10/17 10:21:12;;;;;;;3.73;3.13;;;;;;;;;;5052050;28;20455;-42
2022/10/17 10:23:42;;;;;;;5.90;3.73;;;;;;;;;;5053325;28;20413;-44
2022/10/17 10:26:24;;;;;;;4.63;3.70;;;;;;;;;;5052574;28;20503;-43
2022/10/17 10:28:52;;;;;;;6.90;4.07;;;;;;;;;;5051096;28;20852;-42
2022/10/17 10:31:25;;;;;;;4.83;3.77;;;;;;;;;;5051872;28;20489;-43
2022/10/17 10:33:51;;;;;;;5.63;3.60;;;;;;;;;;5052457;28;20466;-42
2022/10/17 10:36:21;;;;;;;7.80;3.53;;;;;;;;;;5052316;28;20403;-42
2022/10/17 10:38:51;;;;;;;7.23;3.00;;;;;;;;;;5052337;28;20429;-42
2022/10/17 10:41:17;;;;;;;3.50;3.20;;;;;;;;;;5051656;28;20456;-42
2022/10/17 10:43:45;;;;;;;9.03;3.30;;;;;;;;;;5052341;28;20404;-42
2022/10/17 10:46:25;;;;;;;3.97;3.47;;;;;;;;;;5052277;28;20412;-44
2022/10/17 10:48:51;;;;;;;8.43;3.87;;;;;;;;;;5052132;28;20811;-42
2022/10/17 10:51:20;;;;;;;9.43;3.03;;;;;;;;;;5051704;28;20409;-42
2022/10/17 10:54:01;;;;;;;5.50;3.13;;;;;;;;;;5052006;28;20462;-42
2022/10/17 10:56:35;;;;;;;3.93;3.60;;;;;;;;;;5052151;28;20481;-42
2022/10/17 10:59:03;;;;;;;5.53;3.57;;;;;;;;;;5050276;28;20452;-42
2022/10/17 11:01:29;;;;;;;5.63;3.60;;;;;;;;;;5051294;28;20468;-42
2022/10/17 11:04:15;;;;;;;6.23;3.50;;;;;;;;;;5051710;28;20787;-42
2022/10/17 11:06:43;;;;;;;4.70;3.20;;;;;;;;;;5031187;28;20445;-42
2022/10/17 11:09:25;;;;;;;6.70;3.53;;;;;;;;;;5030237;28;20866;-43
2022/10/17 11:11:58;;;;;;;4.10;3.70;;;;;;;;;;5031236;28;20887;-44
2022/10/17 11:14:33;;;;;;;3.63;2.90;;;;;;;;;;5031436;28;20413;-43
2022/10/17 11:17:08;;;;;;;5.63;3.53;;;;;;;;;;5031651;28;21028;-45
2022/10/17 11:19:44;;;;;;;5.43;3.63;;;;;;;;;;5031136;28;20492;-43
2022/10/17 11:22:23;;;;;;;6.23;3.47;;;;;;;;;;5031373;28;20476;-41
2022/10/17 11:24:49;;;;;;;3.93;3.00;;;;;;;;;;5031589;28;20399;-42
2022/10/17 11:27:15;;;;;;;4.03;3.70;;;;;;;;;;5032024;28;20409;-42
2022/10/17 11:29:41;;;;;;;6.87;3.67;;;;;;;;;;5031403;28;20417;-42
2022/10/17 11:32:12;;;;;;;4.27;3.60;;;;;;;;;;5031109;28;20920;-42
2022/10/17 11:34:41;;;;;;;4.60;3.40;;;;;;;;;;5031768;28;20402;-42
2022/10/17 11:37:26;;;;;;;6.50;3.60;;;;;;;;;;5031682;28;20963;-42
2022/10/17 11:39:55;;;;;;;8.10;4.23;;;;;;;;;;5031199;28;20828;-42
2022/10/17 11:42:35;;;;;;;9.93;3.63;;;;;;;;;;5031469;28;20403;-42
2022/10/17 11:45:21;;;;;;;6.57;3.93;;;;;;;;;;5031673;28;20407;-42
2022/10/17 11:47:53;;;;;;;5.43;3.30;;;;;;;;;;5031566;28;20569;-43
2022/10/17 11:50:25;;;;;;;6.10;3.30;;;;;;;;;;5031162;28;20412;-42
2022/10/17 11:52:54;;;;;;;6.47;3.93;;;;;;;;;;5031644;28;20402;-44
2022/10/17 11:55:24;;;;;;;4.60;3.83;;;;;;;;;;5031953;28;20416;-42
2022/10/17 11:57:53;;;;;;;5.40;3.23;;;;;;;;;;5031528;28;20416;-42
2022/10/17 12:00:19;;;;;;;19.03;3.77;;;;;;;;;;5030707;28;20458;-44
2022/10/17 12:03:00;;;;;;;3.27;3.07;;;;;;;;;;5037416;28;20428;-42
2022/10/17 12:05:38;;;;;;;3.77;3.47;;;;;;;;;;5051186;28;20403;-42
2022/10/17 12:08:23;;;;;;;6.23;3.40;;;;;;;;;;5050975;28;20412;-42
2022/10/17 12:10:49;;;;;;;6.33;4.67;;;;;;;;;;5050179;28;20393;-41
2022/10/17 12:13:27;;;;;;;7.67;3.73;;;;;;;;;;5051250;28;20773;-42
2022/10/17 12:15:53;;;;;;;3.67;3.37;;;;;;;;;;5050987;28;20404;-43
2022/10/17 12:18:19;;;;;;;5.70;3.63;;;;;;;;;;5051167;28;20413;-42
2022/10/17 12:20:55;;;;;;;7.77;3.73;;;;;;;;;;5050109;28;20831;-43
2022/10/17 12:23:25;;;;;;;6.17;3.97;;;;;;;;;;5050926;28;20455;-44
2022/10/17 12:25:57;;;;;;;7.53;3.90;;;;;;;;;;5051047;28;20586;-42
2022/10/17 12:28:38;;;;;;;7.43;3.60;;;;;;;;;;5050922;28;20425;-42
2022/10/17 12:31:11;;;;;;;4.40;3.60;;;;;;;;;;5051538;28;20951;-44
2022/10/17 12:33:57;;;;;;;6.00;3.70;;;;;;;;;;5054570;28;20389;-42
2022/10/17 12:36:23;;;;;;;3.90;3.43;;;;;;;;;;5054729;28;20793;-42
2022/10/17 12:39:16;;;;;;;4.23;3.30;;;;;;;;;;5054890;28;20413;-42
2022/10/17 12:41:43;;;;;;;9.20;3.70;;;;;;;;;;5053832;28;20510;-42
2022/10/17 12:44:12;;;;;;;6.90;4.40;;;;;;;;;;5054239;28;20898;-42
2022/10/17 12:46:47;;;;;;;5.10;4.20;;;;;;;;;;5054406;28;20401;-42
2022/10/17 12:49:23;;;;;;;5.53;3.33;;;;;;;;;;5054313;28;20558;-42
2022/10/17 12:52:05;;;;;;;4.80;3.53;;;;;;;;;;5053730;28;20401;-45
2022/10/17 12:54:33;;;;;;;4.20;3.80;;;;;;;;;;5054146;28;20420;-42
2022/10/17 12:56:59;;;;;;;5.33;3.60;;;;;;;;;;5053805;28;20882;-42
2022/10/17 12:59:27;;;;;;;14.13;3.97;;;;;;;;;;5054014;28;20424;-42
2022/10/17 13:01:55;;;;;;;11.37;3.80;;;;;;;;;;5053600;28;20557;-42
2022/10/17 13:04:22;;;;;;;3.57;3.27;;;;;;;;;;5054169;28;20425;-42
2022/10/17 13:06:49;;;;;;;3.50;3.20;;;;;;;;;;5054188;28;20741;-42
2022/10/17 13:09:29;;;;;;;3.50;3.20;;;;;;;;;;5054001;28;20426;-44
2022/10/17 13:11:56;;;;;;;4.63;4.10;;;;;;;;;;5053541;28;20762;-42
2022/10/17 13:14:23;;;;;;;6.23;4.70;;;;;;;;;;5054020;28;20413;-42
2022/10/17 13:16:54;;;;;;;5.97;3.57;;;;;;;;;;5054115;28;20408;-42
2022/10/17 13:19:22;;;;;;;7.47;4.37;;;;;;;;;;5053796;28;20484;-42
2022/10/17 13:21:59;;;;;;;8.43;4.07;;;;;;;;;;5053205;28;20516;-42
2022/10/17 13:24:39;;;;;;;4.43;4.03;;;;;;;;;;5053918;28;20404;-42
2022/10/17 13:27:06;;;;;;;6.30;4.70;;;;;;;;;;5053832;28;20408;-42
2022/10/17 13:29:32;;;;;;;6.60;4.33;;;;;;;;;;5053590;28;20452;-42
2022/10/17 13:32:00;;;;;;;4.73;4.20;;;;;;;;;;5053071;28;20432;-45
2022/10/17 13:34:26;;;;;;;9.20;4.37;;;;;;;;;;5051391;28;20446;-42
2022/10/17 13:36:54;;;;;;;5.60;4.07;;;;;;;;;;5053564;28;20423;-42
2022/10/17 13:39:23;;;;;;;11.63;4.20;;;;;;;;;;5053399;28;20428;-42
2022/10/17 13:41:49;;;;;;;7.50;4.40;;;;;;;;;;5046537;28;20534;-42
2022/10/17 13:44:17;;;;;;;18.90;4.30;;;;;;;;;;5046201;28;20452;-42
2022/10/17 13:46:44;;;;;;;4.57;4.10;;;;;;;;;;5053231;28;20471;-42
2022/10/17 13:49:21;;;;;;;4.53;4.13;;;;;;;;;;5042221;28;20440;-42
2022/10/17 13:51:48;;;;;;;9.17;4.10;;;;;;;;;;5039218;28;20461;-42
2022/10/17 13:54:33;;;;;;;4.47;4.00;;;;;;;;;;5034389;28;20416;-42
2022/10/17 13:57:00;;;;;;;9.00;4.77;;;;;;;;;;5033065;28;20402;-42
2022/10/17 13:59:46;;;;;;;10.00;4.07;;;;;;;;;;5033548;28;20436;-42
2022/10/17 14:02:38;;;;;;;4.30;3.90;;;;;;;;;;5033843;28;20730;-42
2022/10/17 14:05:07;;;;;;;5.60;3.90;;;;;;;;;;5032854;28;20435;-43
2022/10/17 14:07:42;;;;;;;11.67;5.20;;;;;;;;;;5052422;28;20408;-42
2022/10/17 14:10:18;;;;;;;9.10;4.70;;;;;;;;;;5052579;28;20485;-43
2022/10/17 14:12:45;;;;;;;6.60;4.67;;;;;;;;;;5052744;28;20957;-42
2022/10/17 14:15:13;;;;;;;7.40;4.80;;;;;;;;;;5053252;28;20742;-42
2022/10/17 14:17:40;;;;;;;6.70;4.40;;;;;;;;;;5052621;28;20573;-42
2022/10/17 14:20:06;;;;;;;11.90;5.40;;;;;;;;;;5052462;28;20421;-42
2022/10/17 14:22:36;;;;;;;10.73;5.37;;;;;;;;;;5050920;28;20392;-43
2022/10/17 14:25:03;;;;;;;10.33;5.27;;;;;;;;;;5051056;28;20408;-42
2022/10/17 14:27:54;;;;;;;11.40;5.40;;;;;;;;;;5052681;28;20729;-43
2022/10/17 14:30:26;;;;;;;7.07;5.50;;;;;;;;;;5052070;28;20924;-43
2022/10/17 14:32:54;;;;;;;10.53;5.53;;;;;;;;;;5052538;28;20461;-42
2022/10/17 14:35:20;;;;;;;8.33;6.47;;;;;;;;;;5052651;28;20870;-42
2022/10/17 14:37:47;;;;;;;8.00;5.13;;;;;;;;;;5052236;28;20539;-42
2022/10/17 14:40:15;;;;;;;6.93;4.73;;;;;;;;;;5051705;28;20418;-44
2022/10/17 14:42:41;;;;;;;15.27;5.20;;;;;;;;;;5052361;28;20495;-42
2022/10/17 14:45:08;;;;;;;11.00;4.50;;;;;;;;;;5052406;28;20539;-42
2022/10/17 14:47:34;;;;;;;7.77;5.00;;;;;;;;;;5052344;28;20941;-42
2022/10/17 14:50:05;;;;;;;7.00;4.47;;;;;;;;;;5051890;28;20523;-42
2022/10/17 14:52:31;;;;;;;8.40;5.40;;;;;;;;;;5051848;28;20767;-42
2022/10/17 14:54:58;;;;;;;5.77;5.20;;;;;;;;;;5050078;28;20916;-42
2022/10/17 14:57:34;;;;;;;7.30;5.47;;;;;;;;;;5051100;28;20420;-42